Wetterdaten: aktuell Montag, 04.05.2026 15:17
Datum Zeit Temp. A. Feuchte A. Luftdruck Regen Wind Richtung Richtung Taupunkt Windchill
04.05.2026 15:17 22,8 °C 27 % 1004,9 hPa 0,0 l/m² 7,2 km/h (2 Bft) N-NW±22.5° 330 ° 2,8 °C 22,5 °C
04.05.2026 15:15 22,9 °C 27 % 1004,9 hPa 0,0 l/m² 4,7 km/h (1 Bft) W-NW±22.5° 295 ° 2,9 °C 22,9 °C
04.05.2026 15:13 23,0 °C 26 % 1004,9 hPa 0,0 l/m² 9,5 km/h (2 Bft) NW±45° 310 ° 2,5 °C 22,1 °C
04.05.2026 15:11 23,0 °C 26 % 1004,9 hPa 0,0 l/m² 3,4 km/h (1 Bft) NW 325 ° 2,5 °C 23,0 °C
04.05.2026 15:09 23,2 °C 26 % 1004,9 hPa 0,0 l/m² 3,4 km/h (1 Bft) NW 325 ° 2,6 °C 23,2 °C
04.05.2026 15:07 23,3 °C 26 % 1004,8 hPa 0,0 l/m² 7,2 km/h (2 Bft) NW±22.5° 320 ° 2,7 °C 23,1 °C
04.05.2026 15:05 23,3 °C 26 % 1004,8 hPa 0,0 l/m² 8,4 km/h (2 Bft) NW±22.5° 320 ° 2,7 °C 22,7 °C
04.05.2026 15:03 23,4 °C 25 % 1004,8 hPa 0,0 l/m² 8,4 km/h (2 Bft) NW±22.5° 320 ° 2,3 °C 22,8 °C
04.05.2026 15:01 23,5 °C 26 % 1004,8 hPa 0,0 l/m² 13,9 km/h (3 Bft) S-SW 210 ° 2,9 °C 21,7 °C
04.05.2026 14:59 23,5 °C 26 % 1005,9 hPa 0,0 l/m² 5,9 km/h (2 Bft) SO±45° 140 ° 2,9 °C 23,5 °C
04.05.2026 14:57 23,5 °C 26 % 1005,9 hPa 0,0 l/m² 1,1 km/h (1 Bft) S±45° 180 ° 2,9 °C 23,5 °C
04.05.2026 14:55 23,4 °C 26 % 1005,9 hPa 0,0 l/m² 1,1 km/h (1 Bft) S±45° 180 ° 2,8 °C 23,4 °C
04.05.2026 14:53 23,4 °C 25 % 1005,9 hPa 0,0 l/m² 0,0 km/h (0 Bft) S-SO 165 ° 2,3 °C 23,4 °C
04.05.2026 14:51 23,4 °C 25 % 1005,9 hPa 0,0 l/m² 6,1 km/h (2 Bft) S-SO±45° 165 ° 2,3 °C 23,4 °C
04.05.2026 14:49 23,4 °C 25 % 1005,9 hPa 0,0 l/m² 5,4 km/h (1 Bft) O-SO±45° 105 ° 2,3 °C 23,4 °C
04.05.2026 14:47 23,4 °C 25 % 1005,9 hPa 0,0 l/m² 5,4 km/h (1 Bft) O-SO±45° 105 ° 2,3 °C 23,4 °C
04.05.2026 14:45 23,4 °C 25 % 1005,9 hPa 0,0 l/m² 0,1 km/h (0 Bft) N-NO 25 ° 2,3 °C 23,4 °C
04.05.2026 14:42 23,5 °C 24 % 1005,9 hPa 0,0 l/m² 1,0 km/h (0 Bft) NO±22.5° 35 ° 1,8 °C 23,5 °C
04.05.2026 14:40 23,6 °C 25 % 1005,8 hPa 0,0 l/m² 1,0 km/h (0 Bft) NO±22.5° 35 ° 2,4 °C 23,6 °C
04.05.2026 14:39 23,6 °C 25 % 1005,8 hPa 0,0 l/m² 5,5 km/h (1 Bft) S 175 ° 2,4 °C 23,6 °C
04.05.2026 14:37 23,7 °C 26 % 1005,8 hPa 0,0 l/m² 0,7 km/h (0 Bft) S±67.5° 175 ° 3,1 °C 23,7 °C
04.05.2026 14:35 23,7 °C 25 % 1005,8 hPa 0,0 l/m² 4,3 km/h (1 Bft) SO±45° 130 ° 2,5 °C 23,7 °C
04.05.2026 14:33 23,7 °C 25 % 1005,8 hPa 0,0 l/m² 4,3 km/h (1 Bft) SO±45° 130 ° 2,5 °C 23,7 °C
04.05.2026 14:31 23,8 °C 24 % 1005,8 hPa 0,0 l/m² 4,0 km/h (1 Bft) NO±67.5° 45 ° 2,0 °C 23,8 °C
04.05.2026 14:29 23,8 °C 24 % 1005,8 hPa 0,0 l/m² 5,2 km/h (1 Bft) W-NW±22.5° 295 ° 2,0 °C 23,8 °C
04.05.2026 14:27 23,8 °C 24 % 1005,8 hPa 0,0 l/m² 3,3 km/h (1 Bft) S-SO±67.5° 155 ° 2,0 °C 23,8 °C
04.05.2026 14:25 23,9 °C 24 % 1005,8 hPa 0,0 l/m² 3,3 km/h (1 Bft) S-SO±67.5° 155 ° 2,1 °C 23,9 °C
04.05.2026 14:23 24,0 °C 23 % 1005,8 hPa 0,0 l/m² 1,3 km/h (1 Bft) SO±22.5° 145 ° 1,6 °C 24,0 °C
04.05.2026 14:21 24,0 °C 23 % 1005,8 hPa 0,0 l/m² 3,4 km/h (1 Bft) NW 305 ° 1,6 °C 24,0 °C
04.05.2026 14:19 24,0 °C 22 % 1005,8 hPa 0,0 l/m² 3,4 km/h (1 Bft) NW 305 ° 1,0 °C 24,0 °C
04.05.2026 14:17 24,2 °C 22 % 1005,8 hPa 0,0 l/m² 0,9 km/h (0 Bft) W-SW 245 ° 1,1 °C 24,2 °C
04.05.2026 14:15 24,2 °C 22 % 1005,8 hPa 0,0 l/m² 3,6 km/h (1 Bft) S-SO±67.5° 165 ° 1,1 °C 24,2 °C
04.05.2026 14:13 24,2 °C 22 % 1005,8 hPa 0,0 l/m² 7,4 km/h (2 Bft) S-SO±22.5° 165 ° 1,1 °C 23,9 °C
04.05.2026 14:11 24,2 °C 23 % 1004,8 hPa 0,0 l/m² 7,4 km/h (2 Bft) S-SO±22.5° 165 ° 1,8 °C 23,9 °C
04.05.2026 14:09 24,2 °C 23 % 1005,8 hPa 0,0 l/m² 5,9 km/h (2 Bft) O±67.5° 95 ° 1,8 °C 24,2 °C
04.05.2026 14:07 24,2 °C 23 % 1005,8 hPa 0,0 l/m² 7,4 km/h (2 Bft) O-SO±45° 120 ° 1,8 °C 23,9 °C
04.05.2026 14:05 24,1 °C 22 % 1005,8 hPa 0,0 l/m² 5,9 km/h (2 Bft) SO 140 ° 1,1 °C 24,1 °C
04.05.2026 14:03 24,1 °C 22 % 1005,8 hPa 0,0 l/m² 5,9 km/h (2 Bft) SO 140 ° 1,1 °C 24,1 °C
04.05.2026 14:01 24,0 °C 22 % 1005,8 hPa 0,0 l/m² 8,9 km/h (2 Bft) SO±22.5° 125 ° 1,0 °C 23,3 °C
04.05.2026 13:58 24,0 °C 22 % 1005,8 hPa 0,0 l/m² 4,8 km/h (1 Bft) O-SO±22.5° 120 ° 1,0 °C 24,0 °C
04.05.2026 13:56 24,0 °C 22 % 1004,8 hPa 0,0 l/m² 4,8 km/h (1 Bft) O-SO±22.5° 120 ° 1,0 °C 24,0 °C
_ Min-Zeit 06:05 13:05 14:11 - 00:01 - - 13:05 06:05
Minimum _ 12,9 °C 20 % 1004,8 hPa - 0,0 km/h (0 Bft) - - -0,3 °C 12,9 °C
_ Max-Zeit 13:16 06:47 06:19 00:01 15:01 - - 07:59 13:21
Maximum _ 24,4 °C 58 % 1007,3 hPa 0,0 l/m² 13,9 km/h
S-SW (3 Bft)
- - 4,9 °C 24,4 °C
Durchschnitt _ 18,0 °C 38 % 1006,6 hPa #0,0 l/m² 1,6 km/h (1 Bft) SO - 2,7 °C 18,0 °C